Time;durP1;ratioP1;P1;durP2;ratioP2;P2;SDS_P1;SDS_P2;PMS_P1;PMS_P2;Temp;Humidity;BMP_temperature;BMP_pressure;BME280_temperature;BME280_humidity;BME280_pressure;Samples;Min_cycle;Max_cycle;Signal;HPM_P1;HPM_P2
2023/04/02 00:01:35;;;;;;;3.08;1.80;;;4.90;99.90;;;;;;4965877;28;20053;-69
2023/04/02 00:04:04;;;;;;;4.88;2.30;;;4.90;99.90;;;;;;4982083;28;20536;-70
2023/04/02 00:06:32;;;;;;;2.65;1.50;;;4.80;99.90;;;;;;4961736;28;20134;-69
2023/04/02 00:09:03;;;;;;;4.80;1.90;;;4.80;99.90;;;;;;4966253;28;20492;-70
2023/04/02 00:11:39;;;;;;;6.55;1.83;;;4.80;99.90;;;;;;4965345;28;20090;-69
2023/04/02 00:14:14;;;;;;;4.10;2.10;;;4.80;99.90;;;;;;4967861;28;20303;-69
2023/04/02 00:16:40;;;;;;;9.50;2.20;;;4.80;99.90;;;;;;4980427;28;20049;-69
2023/04/02 00:19:12;;;;;;;5.55;2.20;;;4.80;99.90;;;;;;4986136;28;20050;-69
2023/04/02 00:21:40;;;;;;;4.10;1.65;;;4.70;99.90;;;;;;4971666;28;20113;-70
2023/04/02 00:24:24;;;;;;;7.15;2.42;;;4.60;99.90;;;;;;4977336;28;20034;-69
2023/04/02 00:26:51;;;;;;;5.53;1.80;;;4.70;99.90;;;;;;4983841;28;20043;-69
2023/04/02 00:29:18;;;;;;;3.85;1.92;;;4.60;99.90;;;;;;4980801;28;20038;-69
2023/04/02 00:31:52;;;;;;;5.25;1.75;;;4.60;99.90;;;;;;4966512;28;20078;-70
2023/04/02 00:34:36;;;;;;;8.50;2.35;;;4.60;99.90;;;;;;4967669;28;20563;-70
2023/04/02 00:37:03;;;;;;;6.97;1.70;;;4.60;99.90;;;;;;4983337;28;20524;-70
2023/04/02 00:39:31;;;;;;;;;;;4.60;99.90;;;;;;4954172;28;20078;-67
2023/04/02 00:42:04;;;;;;;5.43;1.98;;;4.50;99.90;;;;;;4984907;28;20400;-68
2023/04/02 00:44:37;;;;;;;12.02;2.00;;;4.50;99.90;;;;;;4965793;28;20070;-67
2023/04/02 00:47:15;;;;;;;4.88;1.60;;;4.50;99.90;;;;;;4966631;28;20121;-67
2023/04/02 00:49:42;;;;;;;2.97;1.55;;;4.50;99.90;;;;;;4966168;28;20408;-67
2023/04/02 00:52:15;;;;;;;4.10;1.60;;;4.50;99.90;;;;;;4967927;28;20045;-68
2023/04/02 00:55:05;;;;;;;5.65;1.65;;;4.40;99.90;;;;;;4966511;28;20050;-67
2023/04/02 00:57:32;;;;;;;4.90;1.80;;;4.30;99.90;;;;;;4962443;28;20038;-67
2023/04/02 01:00:14;;;;;;;3.50;1.88;;;4.20;99.90;;;;;;4982580;28;20046;-67
2023/04/02 01:02:41;;;;;;;3.80;1.77;;;4.10;99.90;;;;;;4968780;28;20551;-69
2023/04/02 01:05:15;;;;;;;4.28;1.60;;;4.00;99.90;;;;;;4984579;28;20153;-70
2023/04/02 01:08:00;;;;;;;5.35;1.85;;;4.00;99.90;;;;;;4979382;28;20539;-69
2023/04/02 01:10:46;;;;;;;4.43;1.60;;;3.90;99.90;;;;;;4964883;28;20058;-70
2023/04/02 01:13:25;;;;;;;8.57;2.17;;;3.80;99.90;;;;;;4978460;28;20420;-69
2023/04/02 01:15:55;;;;;;;4.32;1.70;;;3.80;99.90;;;;;;4981890;28;20042;-70
2023/04/02 01:18:35;;;;;;;8.60;1.77;;;3.70;99.90;;;;;;4983359;28;20034;-70
2023/04/02 01:21:07;;;;;;;4.38;1.52;;;3.60;99.90;;;;;;4969025;28;20218;-70
2023/04/02 01:23:44;;;;;;;6.10;1.52;;;3.60;99.90;;;;;;4966958;28;20144;-69
2023/04/02 01:26:46;;;;;;;3.30;1.60;;;3.50;99.90;;;;;;4961498;28;20074;-69
2023/04/02 01:29:14;;;;;;;6.78;1.67;;;3.50;99.90;;;;;;4981765;28;20042;-70
2023/04/02 01:31:43;;;;;;;6.60;1.90;;;3.40;99.90;;;;;;4976857;28;20046;-69
2023/04/02 01:34:13;;;;;;;5.63;1.60;;;3.40;99.90;;;;;;4965510;28;20045;-71
2023/04/02 01:37:01;;;;;;;9.18;1.70;;;3.30;99.90;;;;;;4949498;28;20053;-70
2023/04/02 01:39:59;;;;;;;6.38;1.85;;;3.30;99.90;;;;;;4966135;28;20043;-70
2023/04/02 01:42:46;;;;;;;3.72;1.63;;;3.20;99.90;;;;;;4964255;28;20120;-69
2023/04/02 01:45:16;;;;;;;4.68;1.58;;;3.20;99.90;;;;;;4960400;28;20062;-70
2023/04/02 01:47:42;;;;;;;4.55;1.33;;;3.20;99.90;;;;;;4964570;28;20065;-69
2023/04/02 01:50:42;;;;;;;4.05;1.58;;;3.20;99.90;;;;;;4984703;28;20038;-70
2023/04/02 01:53:15;;;;;;;4.50;1.70;;;3.10;99.90;;;;;;4966094;28;20034;-69
2023/04/02 01:55:49;;;;;;;5.75;1.48;;;3.00;99.90;;;;;;4978771;28;20053;-70
2023/04/02 01:58:24;;;;;;;5.72;1.30;;;3.00;99.90;;;;;;4964282;28;20165;-69
2023/04/02 02:00:58;;;;;;;5.22;1.38;;;3.00;99.90;;;;;;4970433;28;20609;-69
2023/04/02 02:03:24;;;;;;;3.88;1.35;;;2.90;99.90;;;;;;4950591;28;20455;-70
2023/04/02 02:05:50;;;;;;;7.57;1.93;;;2.90;99.90;;;;;;4964592;28;20121;-70
2023/04/02 02:08:28;;;;;;;4.93;1.17;;;2.90;99.90;;;;;;4985537;28;20142;-69
2023/04/02 02:10:55;;;;;;;5.10;1.30;;;2.90;99.90;;;;;;4984039;28;20050;-69
2023/04/02 02:13:21;;;;;;;4.75;1.10;;;2.90;99.90;;;;;;4964188;28;20058;-70
2023/04/02 02:15:48;;;;;;;2.42;1.13;;;2.80;99.90;;;;;;4968034;28;20173;-70
2023/04/02 02:18:18;;;;;;;2.58;1.30;;;2.80;99.90;;;;;;4971744;28;20045;-70
2023/04/02 02:20:44;;;;;;;2.72;0.93;;;2.80;99.90;;;;;;4968667;28;20057;-70
2023/04/02 02:23:11;;;;;;;3.63;1.88;;;2.80;99.90;;;;;;4967471;28;20073;-69
2023/04/02 02:25:38;;;;;;;4.03;1.65;;;2.70;99.90;;;;;;4969565;28;20042;-70
2023/04/02 02:28:32;;;;;;;5.32;1.05;;;2.70;99.90;;;;;;4971802;28;20472;-70
2023/04/02 02:31:32;;;;;;;4.90;1.55;;;2.70;99.90;;;;;;4987614;28;20038;-69
2023/04/02 02:34:15;;;;;;;3.25;1.42;;;2.60;99.90;;;;;;4949059;28;20074;-69
2023/04/02 02:36:53;;;;;;;5.68;1.30;;;2.60;99.90;;;;;;4960280;28;20039;-70
2023/04/02 02:39:23;;;;;;;2.20;1.10;;;2.50;99.90;;;;;;4983306;28;20077;-69
2023/04/02 02:41:53;;;;;;;4.30;1.08;;;2.50;99.90;;;;;;4967523;28;20042;-69
2023/04/02 02:44:41;;;;;;;5.60;1.33;;;2.50;99.90;;;;;;4964525;28;20129;-69
2023/04/02 02:47:15;;;;;;;14.13;2.25;;;2.50;99.90;;;;;;4969561;28;20050;-70
2023/04/02 02:49:45;;;;;;;1.90;0.95;;;2.50;99.90;;;;;;4987280;28;20480;-69
2023/04/02 02:52:17;;;;;;;8.07;0.90;;;2.40;99.90;;;;;;4965341;28;20363;-69
2023/04/02 02:54:53;;;;;;;3.97;1.02;;;2.50;99.90;;;;;;4970229;28;20054;-69
2023/04/02 02:57:29;;;;;;;4.05;1.00;;;2.40;99.90;;;;;;4968162;28;20054;-69
2023/04/02 02:59:57;;;;;;;3.17;1.13;;;2.40;99.90;;;;;;4986205;28;20042;-69
2023/04/02 03:02:25;;;;;;;3.53;1.00;;;2.40;99.90;;;;;;4968092;28;20078;-69
2023/04/02 03:04:53;;;;;;;2.20;0.93;;;2.30;99.90;;;;;;4982295;28;20044;-69
2023/04/02 03:07:20;;;;;;;5.40;1.33;;;2.30;99.90;;;;;;4970028;28;20042;-70
2023/04/02 03:10:08;;;;;;;4.40;1.05;;;2.30;99.90;;;;;;4953005;28;20080;-70
2023/04/02 03:13:03;;;;;;;2.35;0.98;;;2.20;99.90;;;;;;4985166;28;20866;-69
2023/04/02 03:15:54;;;;;;;5.82;1.08;;;2.20;99.90;;;;;;4963970;28;20527;-69
2023/04/02 03:18:40;;;;;;;4.72;0.98;;;2.20;99.90;;;;;;4967859;28;20472;-69
2023/04/02 03:21:17;;;;;;;3.80;1.42;;;2.20;99.90;;;;;;4967283;28;20464;-69
2023/04/02 03:23:46;;;;;;;6.20;0.97;;;2.20;99.90;;;;;;4964794;28;20038;-69
2023/04/02 03:26:28;;;;;;;4.50;1.30;;;2.10;99.90;;;;;;4985528;28;20097;-70
2023/04/02 03:29:12;;;;;;;2.65;0.90;;;2.10;99.90;;;;;;4968204;28;20141;-70
2023/04/02 03:31:43;;;;;;;1.85;0.77;;;2.10;99.90;;;;;;4967743;28;20228;-69
2023/04/02 03:34:18;;;;;;;3.80;0.90;;;2.10;99.90;;;;;;4977472;28;20121;-69
2023/04/02 03:37:01;;;;;;;3.92;1.25;;;2.00;99.90;;;;;;4962183;28;20456;-69
2023/04/02 03:39:39;;;;;;;7.50;1.02;;;2.00;99.90;;;;;;4964250;28;20124;-69
2023/04/02 03:42:25;;;;;;;5.20;1.08;;;2.00;99.90;;;;;;4951337;28;20078;-70
2023/04/02 03:45:01;;;;;;;3.27;1.13;;;1.90;99.90;;;;;;4982666;28;20321;-70
2023/04/02 03:47:32;;;;;;;2.80;0.95;;;1.90;99.90;;;;;;4980071;28;20279;-69
2023/04/02 03:50:26;;;;;;;4.72;1.00;;;1.90;99.90;;;;;;4981924;28;20437;-70
2023/04/02 03:52:52;;;;;;;4.07;0.77;;;1.90;99.90;;;;;;4966022;28;20054;-69
2023/04/02 03:55:29;;;;;;;2.80;0.90;;;1.90;99.90;;;;;;4983420;28;20049;-69
2023/04/02 03:58:15;;;;;;;;;;;1.90;99.90;;;;;;4986395;28;20046;-69
2023/04/02 04:00:51;;;;;;;3.63;0.90;;;1.80;99.90;;;;;;4967786;28;19925;-69
2023/04/02 04:03:22;;;;;;;5.05;0.90;;;1.80;99.90;;;;;;4967791;28;20061;-69
2023/04/02 04:06:13;;;;;;;2.22;1.23;;;1.80;99.90;;;;;;4981958;28;20403;-69
2023/04/02 04:08:56;;;;;;;3.55;0.98;;;1.80;99.90;;;;;;4952161;28;20054;-69
2023/04/02 04:11:29;;;;;;;3.28;1.05;;;1.80;99.90;;;;;;4944988;28;20479;-69
2023/04/02 04:14:10;;;;;;;2.70;1.20;;;1.80;99.90;;;;;;4967583;28;20054;-70
2023/04/02 04:17:12;;;;;;;5.95;0.95;;;1.70;99.90;;;;;;4979884;28;20038;-70
2023/04/02 04:19:53;;;;;;;3.58;0.95;;;1.70;99.90;;;;;;4967470;28;20096;-69
2023/04/02 04:22:32;;;;;;;5.07;1.20;;;1.70;99.90;;;;;;4963044;28;20189;-70
2023/04/02 04:25:00;;;;;;;2.28;1.02;;;1.70;99.90;;;;;;4965797;28;20042;-69
2023/04/02 04:27:45;;;;;;;5.25;1.10;;;1.70;99.90;;;;;;4964971;28;20043;-69
2023/04/02 04:30:24;;;;;;;2.45;0.95;;;1.70;99.90;;;;;;4977187;28;20050;-69
2023/04/02 04:33:03;;;;;;;5.43;1.00;;;1.70;99.90;;;;;;4980547;28;20882;-69
2023/04/02 04:35:36;;;;;;;2.30;1.10;;;1.80;99.90;;;;;;4977902;28;20617;-70
2023/04/02 04:38:37;;;;;;;2.25;1.02;;;1.70;99.90;;;;;;4964021;28;20536;-70
2023/04/02 04:41:16;;;;;;;2.92;1.02;;;1.70;99.90;;;;;;4922005;28;20058;-69
2023/04/02 04:44:05;;;;;;;3.20;1.20;;;1.70;99.90;;;;;;4965416;28;20046;-69
2023/04/02 04:46:41;;;;;;;4.43;0.90;;;1.70;99.90;;;;;;4982450;28;20368;-69
2023/04/02 04:49:21;;;;;;;4.55;1.17;;;1.70;99.90;;;;;;4966880;28;20044;-69
2023/04/02 04:51:52;;;;;;;4.82;1.10;;;1.70;99.90;;;;;;4968350;28;20125;-69
2023/04/02 04:54:19;;;;;;;4.22;0.80;;;1.70;99.90;;;;;;4981711;28;20034;-69
2023/04/02 04:56:48;;;;;;;6.35;1.38;;;1.70;99.90;;;;;;4962856;28;20061;-69
2023/04/02 04:59:29;;;;;;;2.08;1.30;;;1.70;99.90;;;;;;4967326;28;20126;-69
2023/04/02 05:02:13;;;;;;;5.43;1.23;;;1.70;99.90;;;;;;4981721;28;20042;-69
2023/04/02 05:04:47;;;;;;;1.98;1.05;;;1.70;99.90;;;;;;4965317;28;20046;-69
2023/04/02 05:07:19;;;;;;;1.90;0.80;;;1.70;99.90;;;;;;4963223;28;20369;-69
2023/04/02 05:09:54;;;;;;;4.68;0.90;;;1.60;99.90;;;;;;4964754;28;20054;-70
2023/04/02 05:12:39;;;;;;;4.57;0.80;;;1.70;99.90;;;;;;4964082;28;20396;-70
2023/04/02 05:15:28;;;;;;;5.90;0.75;;;1.60;99.90;;;;;;4961970;28;20139;-69
2023/04/02 05:18:30;;;;;;;5.40;1.02;;;1.70;99.90;;;;;;4965481;28;20445;-69
2023/04/02 05:20:58;;;;;;;5.07;0.60;;;1.70;99.90;;;;;;4981134;28;20261;-69
2023/04/02 05:23:33;;;;;;;3.97;1.58;;;1.70;99.90;;;;;;4984955;28;20034;-69
2023/04/02 05:26:07;;;;;;;5.90;1.50;;;1.70;99.90;;;;;;4985402;28;20092;-69
2023/04/02 05:28:47;;;;;;;6.00;1.13;;;1.70;99.90;;;;;;4984509;28;20435;-69
2023/04/02 05:31:41;;;;;;;3.88;1.00;;;1.70;99.90;;;;;;4976131;28;20060;-69
2023/04/02 05:34:10;;;;;;;2.45;0.77;;;1.70;99.90;;;;;;4979569;28;20524;-69
2023/04/02 05:36:36;;;;;;;6.25;1.20;;;1.70;99.90;;;;;;4981268;28;20411;-69
2023/04/02 05:39:06;;;;;;;8.97;1.00;;;1.70;99.90;;;;;;4966668;28;20047;-69
2023/04/02 05:41:46;;;;;;;3.80;1.23;;;1.70;99.90;;;;;;4983069;28;20042;-69
2023/04/02 05:44:24;;;;;;;4.07;0.73;;;1.70;99.90;;;;;;4962549;28;20053;-69
2023/04/02 05:47:01;;;;;;;4.45;0.90;;;1.80;99.90;;;;;;4965204;28;20060;-69
2023/04/02 05:49:48;;;;;;;3.67;0.80;;;1.80;99.90;;;;;;4982863;23;20404;-69
2023/04/02 05:52:23;;;;;;;2.53;0.80;;;1.80;99.90;;;;;;4979506;28;20051;-68
2023/04/02 05:55:04;;;;;;;2.28;0.77;;;1.80;99.90;;;;;;4984681;28;20082;-68
2023/04/02 05:57:39;;;;;;;3.95;0.80;;;1.90;99.90;;;;;;4988429;28;20042;-68
2023/04/02 06:00:12;;;;;;;3.72;0.70;;;1.90;99.90;;;;;;4981981;28;20479;-68
2023/04/02 06:02:43;;;;;;;1.60;0.65;;;1.90;99.90;;;;;;4982676;28;20058;-68
2023/04/02 06:05:16;;;;;;;2.03;0.80;;;2.00;99.90;;;;;;4984371;28;20065;-68
2023/04/02 06:07:55;;;;;;;6.43;0.60;;;2.00;99.90;;;;;;4988469;28;20133;-68
2023/04/02 06:10:30;;;;;;;1.50;0.57;;;2.10;99.90;;;;;;4977698;28;20407;-68
2023/04/02 06:13:02;;;;;;;4.68;0.90;;;2.10;99.90;;;;;;4980922;28;20050;-68
2023/04/02 06:15:29;;;;;;;1.75;0.68;;;2.10;99.90;;;;;;4992289;28;20050;-68
2023/04/02 06:18:05;;;;;;;4.03;0.50;;;2.10;99.90;;;;;;4980061;28;20097;-67
2023/04/02 06:20:31;;;;;;;3.28;1.08;;;2.20;99.90;;;;;;4988436;28;20074;-68
2023/04/02 06:23:23;;;;;;;4.63;0.75;;;2.30;99.90;;;;;;4977787;28;20471;-68
2023/04/02 06:26:03;;;;;;;4.60;1.58;;;2.30;99.90;;;;;;4972636;28;20090;-67
2023/04/02 06:28:52;;;;;;;3.10;0.80;;;2.30;99.90;;;;;;4960708;28;20039;-68
2023/04/02 06:31:24;;;;;;;7.15;0.80;;;2.40;99.90;;;;;;4973071;28;20042;-67
2023/04/02 06:33:51;;;;;;;3.10;0.70;;;2.40;99.90;;;;;;4993814;28;20046;-68
2023/04/02 06:36:18;;;;;;;4.03;0.57;;;2.50;99.90;;;;;;4959722;28;20508;-68
2023/04/02 06:38:46;;;;;;;3.00;0.70;;;2.50;99.90;;;;;;4990748;28;20049;-67
2023/04/02 06:41:20;;;;;;;3.53;1.10;;;2.60;99.90;;;;;;4978261;28;20045;-68
2023/04/02 06:43:50;;;;;;;6.10;1.30;;;2.60;99.90;;;;;;4987289;28;20436;-68
2023/04/02 06:46:38;;;;;;;4.53;1.80;;;2.70;99.90;;;;;;4978904;28;20200;-68
2023/04/02 06:49:24;;;;;;;3.20;0.63;;;2.70;99.90;;;;;;4990324;28;20491;-68
2023/04/02 06:51:53;;;;;;;5.68;0.90;;;2.80;99.90;;;;;;4981910;28;20042;-68
2023/04/02 06:54:19;;;;;;;4.45;1.13;;;2.90;99.90;;;;;;4984208;28;20137;-68
2023/04/02 06:56:50;;;;;;;4.38;0.50;;;2.90;99.90;;;;;;4965281;28;20089;-67
2023/04/02 06:59:19;;;;;;;3.45;0.98;;;3.00;99.90;;;;;;4967360;28;20079;-68
2023/04/02 07:02:03;;;;;;;2.03;0.88;;;3.10;99.90;;;;;;4971957;28;20039;-67
2023/04/02 07:04:29;;;;;;;3.63;0.90;;;3.10;99.90;;;;;;4980011;28;20092;-68
2023/04/02 07:06:55;;;;;;;9.18;1.33;;;3.10;99.90;;;;;;4983076;28;20035;-68
2023/04/02 07:09:21;;;;;;;6.22;1.02;;;3.20;99.90;;;;;;4979798;28;20051;-69
2023/04/02 07:11:47;;;;;;;9.52;2.17;;;3.20;99.90;;;;;;4987696;28;20125;-68
2023/04/02 07:14:13;;;;;;;3.53;0.70;;;3.30;99.90;;;;;;4969758;28;20455;-68
2023/04/02 07:16:41;;;;;;;2.17;0.80;;;3.30;99.90;;;;;;4977998;28;20085;-67
2023/04/02 07:19:18;;;;;;;3.72;0.90;;;3.40;99.90;;;;;;4976133;28;20558;-68
2023/04/02 07:21:44;;;;;;;7.43;1.13;;;3.40;99.90;;;;;;4988482;28;20516;-68
2023/04/02 07:24:10;;;;;;;5.22;0.93;;;3.50;99.90;;;;;;4986299;28;20050;-68
2023/04/02 07:26:36;;;;;;;4.50;0.97;;;3.50;99.90;;;;;;4971727;28;20057;-68
2023/04/02 07:29:07;;;;;;;4.28;0.88;;;3.60;99.90;;;;;;4972687;28;20092;-68
2023/04/02 07:31:32;;;;;;;5.45;1.10;;;3.60;99.90;;;;;;4976101;28;20458;-68
2023/04/02 07:33:59;;;;;;;3.23;0.90;;;3.70;99.90;;;;;;4984399;28;20054;-67
2023/04/02 07:36:26;;;;;;;5.00;1.20;;;3.80;99.90;;;;;;4975686;28;20100;-69
2023/04/02 07:38:52;;;;;;;3.40;1.05;;;3.90;99.90;;;;;;4976959;28;20042;-68
2023/04/02 07:41:18;;;;;;;3.00;1.10;;;4.00;99.90;;;;;;4973643;28;20046;-67
2023/04/02 07:43:44;;;;;;;5.05;0.90;;;4.00;99.90;;;;;;4981873;28;20046;-68
2023/04/02 07:46:13;;;;;;;4.72;1.33;;;4.10;99.90;;;;;;4976414;28;20038;-68
2023/04/02 07:48:39;;;;;;;4.57;1.08;;;4.20;99.90;;;;;;4963425;28;20049;-68
2023/04/02 07:51:23;;;;;;;2.93;0.80;;;4.40;99.90;;;;;;4963392;28;20108;-68
2023/04/02 07:53:54;;;;;;;6.20;0.95;;;4.50;99.90;;;;;;4968110;28;20042;-69
2023/04/02 07:56:21;;;;;;;1.95;0.68;;;4.70;99.90;;;;;;4957767;28;20124;-69
2023/04/02 07:58:47;;;;;;;2.13;0.80;;;4.80;99.90;;;;;;4979378;28;20068;-68
2023/04/02 08:01:26;;;;;;;7.77;1.23;;;4.90;99.90;;;;;;4976877;28;20038;-68
2023/04/02 08:03:54;;;;;;;5.75;1.10;;;4.80;99.90;;;;;;4970020;28;20381;-69
2023/04/02 08:06:20;;;;;;;5.72;1.83;;;4.90;99.90;;;;;;4979185;28;20117;-68
2023/04/02 08:08:46;;;;;;;5.93;1.02;;;5.00;99.90;;;;;;4962178;28;20046;-69
2023/04/02 08:11:15;;;;;;;3.85;1.20;;;5.10;99.90;;;;;;4976889;28;20038;-69
2023/04/02 08:13:41;;;;;;;3.47;1.10;;;5.10;99.90;;;;;;4980147;28;20065;-69
2023/04/02 08:16:07;;;;;;;5.70;1.00;;;5.20;99.90;;;;;;4977674;28;20085;-69
2023/04/02 08:18:33;;;;;;;10.32;1.73;;;5.30;99.90;;;;;;4964526;28;20045;-68
2023/04/02 08:20:59;;;;;;;6.38;1.00;;;5.30;99.90;;;;;;4977201;28;20053;-69
2023/04/02 08:23:26;;;;;;;3.70;0.82;;;5.30;99.90;;;;;;4980369;28;20253;-69
2023/04/02 08:25:52;;;;;;;7.45;1.27;;;5.30;99.90;;;;;;4976985;28;20125;-69
2023/04/02 08:28:19;;;;;;;2.05;0.80;;;5.20;99.90;;;;;;4964234;28;20615;-68
2023/04/02 08:30:47;;;;;;;2.72;1.00;;;5.20;99.90;;;;;;4977331;28;20535;-69
2023/04/02 08:33:16;;;;;;;4.18;0.82;;;5.20;99.90;;;;;;4985251;28;20388;-69
2023/04/02 08:35:43;;;;;;;4.18;0.73;;;5.10;99.90;;;;;;4980542;28;20422;-69
2023/04/02 08:38:14;;;;;;;2.55;0.80;;;5.10;99.90;;;;;;4977568;28;20129;-68
2023/04/02 08:40:43;;;;;;;3.55;0.98;;;5.20;99.90;;;;;;4961520;28;20082;-68
2023/04/02 08:43:27;;;;;;;1.85;0.73;;;5.20;99.90;;;;;;4976516;28;20140;-68
2023/04/02 08:45:57;;;;;;;3.00;0.68;;;5.20;99.90;;;;;;4969682;28;20700;-69
2023/04/02 08:48:23;;;;;;;4.50;1.00;;;5.20;99.90;;;;;;4967523;28;20393;-68
2023/04/02 08:50:50;;;;;;;3.67;1.00;;;5.30;99.90;;;;;;4979886;28;20049;-68
2023/04/02 08:53:20;;;;;;;6.55;1.00;;;5.40;99.90;;;;;;4971303;28;20059;-68
2023/04/02 08:55:54;;;;;;;3.78;1.20;;;5.50;99.90;;;;;;4974292;28;20069;-69
2023/04/02 08:58:45;;;;;;;4.03;1.15;;;5.60;99.90;;;;;;4970174;28;20057;-69
2023/04/02 09:01:40;;;;;;;3.53;1.10;;;5.70;99.90;;;;;;4977381;28;20513;-68
2023/04/02 09:04:19;;;;;;;3.00;1.38;;;5.80;99.90;;;;;;4974209;28;20168;-69
2023/04/02 09:06:47;;;;;;;2.45;1.08;;;5.90;99.90;;;;;;4977886;28;20391;-68
2023/04/02 09:09:14;;;;;;;1.85;0.88;;;6.00;99.90;;;;;;4974788;28;20489;-68
2023/04/02 09:12:02;;;;;;;2.53;0.65;;;6.00;99.90;;;;;;4964380;28;20054;-68
2023/04/02 09:14:43;;;;;;;3.40;0.55;;;6.10;99.90;;;;;;4974116;28;20530;-69
2023/04/02 09:17:23;;;;;;;2.97;1.00;;;6.20;99.90;;;;;;4960534;28;20270;-69
2023/04/02 09:19:57;;;;;;;2.10;0.77;;;6.30;99.90;;;;;;4970908;28;20046;-68
2023/04/02 09:22:26;;;;;;;4.45;0.88;;;6.30;99.90;;;;;;4987837;28;20508;-68
2023/04/02 09:24:58;;;;;;;4.85;1.17;;;6.40;99.90;;;;;;4973190;28;20467;-69
2023/04/02 09:27:28;;;;;;;4.07;1.15;;;6.50;99.90;;;;;;4972814;28;20049;-69
2023/04/02 09:30:05;;;;;;;6.35;1.60;;;6.60;99.90;;;;;;4963985;28;20127;-69
2023/04/02 09:32:52;;;;;;;4.35;0.90;;;6.70;99.90;;;;;;4976436;28;20138;-69
2023/04/02 09:35:21;;;;;;;2.90;1.13;;;6.90;99.90;;;;;;4972211;28;20156;-69
2023/04/02 09:37:47;;;;;;;2.53;1.00;;;7.00;99.90;;;;;;4973773;28;20523;-67
2023/04/02 09:40:23;;;;;;;4.35;1.23;;;7.20;99.90;;;;;;4979089;28;20125;-69
2023/04/02 09:43:04;;;;;;;3.20;1.15;;;7.30;99.90;;;;;;4970156;28;20400;-68
2023/04/02 09:45:30;;;;;;;1.48;0.50;;;7.40;99.90;;;;;;4975121;28;20047;-68
2023/04/02 09:47:57;;;;;;;6.40;0.73;;;7.40;99.90;;;;;;4971066;28;20097;-69
2023/04/02 09:50:32;;;;;;;2.50;0.95;;;7.50;99.90;;;;;;4976723;28;20403;-69
2023/04/02 09:53:15;;;;;;;3.15;0.70;;;7.60;99.90;;;;;;4979915;28;20550;-69
2023/04/02 09:55:41;;;;;;;3.10;0.68;;;7.80;99.90;;;;;;4972391;28;20065;-69
2023/04/02 09:58:11;;;;;;;2.67;1.03;;;7.80;99.90;;;;;;4971146;28;20050;-69
2023/04/02 10:00:38;;;;;;;1.60;0.77;;;7.90;99.90;;;;;;4958349;28;20046;-69
2023/04/02 10:03:24;;;;;;;2.75;0.55;;;8.00;99.90;;;;;;4975747;28;20161;-68
2023/04/02 10:06:03;;;;;;;2.45;0.55;;;8.10;99.90;;;;;;4950290;28;20046;-69
2023/04/02 10:08:30;;;;;;;4.25;1.00;;;8.10;99.90;;;;;;4986019;28;20088;-68
2023/04/02 10:11:09;;;;;;;1.58;0.47;;;8.10;99.90;;;;;;4970991;28;20273;-68
2023/04/02 10:13:57;;;;;;;1.98;0.70;;;8.20;99.90;;;;;;4976432;28;20393;-69
2023/04/02 10:16:44;;;;;;;1.30;0.60;;;8.30;99.90;;;;;;4975080;28;20126;-69
2023/04/02 10:19:22;;;;;;;5.35;1.38;;;8.30;99.90;;;;;;4981117;28;20149;-68
2023/04/02 10:21:49;;;;;;;2.05;0.80;;;8.40;99.90;;;;;;4982681;28;20132;-68
2023/04/02 10:24:15;;;;;;;;;;;8.40;99.90;;;;;;4961351;28;20038;-69
2023/04/02 10:27:15;;;;;;;1.85;0.40;;;8.40;99.90;;;;;;4972201;28;20128;-69
2023/04/02 10:30:00;;;;;;;2.63;0.63;;;8.50;99.90;;;;;;4979200;28;20150;-69
2023/04/02 10:32:41;;;;;;;3.17;0.60;;;8.60;99.90;;;;;;4971149;28;20581;-68
2023/04/02 10:35:09;;;;;;;4.45;0.60;;;8.70;99.90;;;;;;4969004;28;20471;-69
2023/04/02 10:37:47;;;;;;;3.20;0.88;;;8.90;99.90;;;;;;4972517;28;20046;-69
2023/04/02 10:40:40;;;;;;;5.53;0.88;;;8.90;99.90;;;;;;4971683;28;20043;-68
2023/04/02 10:43:43;;;;;;;3.75;1.08;;;9.00;99.90;;;;;;4979480;28;20131;-69
2023/04/02 10:46:18;;;;;;;3.95;1.00;;;9.20;99.90;;;;;;4977736;28;20069;-69
2023/04/02 10:49:05;;;;;;;2.58;0.80;;;9.30;99.90;;;;;;4983552;28;20128;-69
2023/04/02 10:52:04;;;;;;;4.78;1.00;;;9.40;99.90;;;;;;4979340;28;20102;-72
2023/04/02 10:54:42;;;;;;;5.35;1.35;;;9.50;99.90;;;;;;4983112;28;20114;-71
2023/04/02 10:57:18;;;;;;;1.60;0.57;;;9.50;99.90;;;;;;4980257;28;20055;-72
2023/04/02 10:59:51;;;;;;;1.35;0.30;;;9.60;99.90;;;;;;4984211;28;20047;-69
2023/04/02 11:02:31;;;;;;;3.75;0.60;;;9.60;99.90;;;;;;4988509;28;20068;-73
2023/04/02 11:05:01;;;;;;;2.38;0.50;;;9.60;99.90;;;;;;4976913;28;20050;-69
2023/04/02 11:07:30;;;;;;;1.02;0.40;;;9.70;99.90;;;;;;4977831;28;20046;-71
2023/04/02 11:09:57;;;;;;;0.85;0.43;;;9.70;99.90;;;;;;4982880;28;20380;-69
2023/04/02 11:12:40;;;;;;;2.63;0.38;;;9.70;99.90;;;;;;4961764;28;20426;-74
2023/04/02 11:15:15;;;;;;;2.20;0.50;;;9.70;99.90;;;;;;4972431;28;20042;-71
2023/04/02 11:17:43;;;;;;;0.98;0.47;;;9.70;99.90;;;;;;4974048;28;20447;-69
2023/04/02 11:20:46;;;;;;;0.75;0.20;;;9.80;99.90;;;;;;4966352;28;20459;-69
2023/04/02 11:23:14;;;;;;;2.42;0.30;;;9.70;99.90;;;;;;4971762;28;20061;-68
2023/04/02 11:25:41;;;;;;;0.82;0.30;;;9.90;99.90;;;;;;4984215;28;20070;-69
2023/04/02 11:28:26;;;;;;;1.48;0.55;;;10.00;99.90;;;;;;4957193;28;20038;-69
2023/04/02 11:30:52;;;;;;;3.72;0.43;;;10.00;99.90;;;;;;4974406;28;20188;-69
2023/04/02 11:33:29;;;;;;;1.73;0.57;;;10.10;99.90;;;;;;4974002;28;20241;-69
2023/04/02 11:35:55;;;;;;;3.13;0.88;;;10.20;99.90;;;;;;4968414;28;20572;-69
2023/04/02 11:38:21;;;;;;;1.92;0.85;;;10.20;99.90;;;;;;4954900;28;20125;-75
2023/04/02 11:40:55;;;;;;;0.57;0.30;;;10.40;99.90;;;;;;4972005;28;20548;-69
2023/04/02 11:43:33;;;;;;;3.47;0.20;;;10.50;99.90;;;;;;4976553;28;20118;-69
2023/04/02 11:46:05;;;;;;;1.83;0.50;;;10.50;99.90;;;;;;4959149;28;20471;-70
2023/04/02 11:58:59;;;;;;;4.72;0.65;;;10.70;99.90;;;;;;4931725;23;20219;-67
2023/04/02 12:02:22;;;;;;;1.08;0.40;;;10.90;99.90;;;;;;5008490;28;20041;-67
2023/04/02 12:05:08;;;;;;;3.03;0.60;;;11.00;99.90;;;;;;4937278;28;20051;-67
2023/04/02 12:07:51;;;;;;;1.23;0.30;;;11.20;99.90;;;;;;4923663;28;20553;-66
2023/04/02 12:10:25;;;;;;;2.65;0.57;;;11.20;99.80;;;;;;4987267;28;20104;-67
2023/04/02 12:12:51;;;;;;;0.90;0.40;;;11.20;99.90;;;;;;4995105;28;20058;-66
2023/04/02 12:15:38;;;;;;;3.23;0.50;;;11.40;99.90;;;;;;4999206;28;20064;-66
2023/04/02 12:18:22;;;;;;;2.47;0.35;;;11.40;98.70;;;;;;4994293;28;20041;-69
2023/04/02 12:20:56;;;;;;;2.60;0.90;;;11.50;99.50;;;;;;5000447;28;20090;-66
2023/04/02 12:23:30;;;;;;;2.25;0.60;;;11.50;97.90;;;;;;5001495;28;20049;-67
2023/04/02 12:26:24;;;;;;;8.02;3.17;;;11.50;99.20;;;;;;4995433;28;20077;-66
2023/04/02 12:28:53;;;;;;;1.25;0.45;;;11.50;96.90;;;;;;4991868;28;20045;-66
2023/04/02 12:31:23;;;;;;;3.10;0.50;;;11.40;97.20;;;;;;5002503;28;20506;-67
2023/04/02 12:33:51;;;;;;;3.42;0.43;;;11.40;97.00;;;;;;4997161;28;20050;-66
2023/04/02 12:36:20;;;;;;;0.80;0.30;;;11.50;97.70;;;;;;4985094;28;20284;-67
2023/04/02 12:38:50;;;;;;;2.92;0.80;;;11.60;97.60;;;;;;5010010;28;20050;-67
2023/04/02 12:41:23;;;;;;;3.40;0.80;;;11.80;97.50;;;;;;4999126;28;20315;-66
2023/04/02 12:44:00;;;;;;;1.02;0.60;;;11.80;96.30;;;;;;5000805;28;20104;-67
2023/04/02 12:46:28;;;;;;;1.40;0.40;;;11.80;96.90;;;;;;4993012;28;20034;-67
2023/04/02 12:49:03;;;;;;;3.22;0.55;;;11.80;97.30;;;;;;5000112;28;20096;-67
2023/04/02 12:51:29;;;;;;;1.70;0.77;;;11.90;97.10;;;;;;5017021;28;20038;-67
2023/04/02 12:53:56;;;;;;;2.60;0.70;;;11.80;96.50;;;;;;4992091;28;20046;-67
2023/04/02 12:56:23;;;;;;;2.42;0.90;;;11.90;96.50;;;;;;4997420;28;20061;-67
2023/04/02 12:58:57;;;;;;;3.13;1.63;;;12.10;96.30;;;;;;4995584;28;20492;-67
2023/04/02 13:01:30;;;;;;;2.97;0.82;;;12.10;95.80;;;;;;4996494;28;20083;-67
2023/04/02 13:04:13;;;;;;;1.63;0.63;;;12.00;94.80;;;;;;4999094;28;20042;-67
2023/04/02 13:06:46;;;;;;;2.10;0.60;;;11.90;94.20;;;;;;4999898;28;20145;-67
2023/04/02 13:09:33;;;;;;;3.75;2.72;;;12.00;94.60;;;;;;4999369;28;20053;-67
2023/04/02 13:11:59;;;;;;;2.55;1.58;;;12.00;94.50;;;;;;4994652;28;20054;-67
2023/04/02 13:14:25;;;;;;;2.15;1.10;;;12.20;94.20;;;;;;4988388;28;20124;-69
2023/04/02 13:16:51;;;;;;;4.47;3.00;;;12.10;92.30;;;;;;4995565;28;20058;-67
2023/04/02 13:19:35;;;;;;;2.35;0.77;;;12.20;93.80;;;;;;4979127;28;20553;-67
2023/04/02 13:22:02;;;;;;;2.58;0.75;;;12.20;93.60;;;;;;4988623;28;20416;-67
2023/04/02 13:24:32;;;;;;;4.15;1.27;;;12.30;93.70;;;;;;4968046;28;20412;-66
2023/04/02 13:27:00;;;;;;;1.85;0.60;;;12.40;93.90;;;;;;4992275;28;20046;-66
2023/04/02 13:29:28;;;;;;;7.72;3.80;;;12.40;92.30;;;;;;4991419;28;20091;-67
2023/04/02 13:32:00;;;;;;;2.22;1.35;;;12.40;92.30;;;;;;4993383;28;20061;-66
2023/04/02 13:34:26;;;;;;;2.88;0.95;;;12.30;91.30;;;;;;4968924;28;20042;-66
2023/04/02 13:36:52;;;;;;;2.55;1.63;;;12.30;92.00;;;;;;4990767;28;20065;-66
2023/04/02 13:39:19;;;;;;;2.77;1.50;;;12.30;91.60;;;;;;4993169;28;20049;-67
2023/04/02 13:41:51;;;;;;;1.75;0.90;;;12.30;91.80;;;;;;4991226;28;20498;-66
2023/04/02 13:44:31;;;;;;;6.20;4.80;;;12.50;92.20;;;;;;4992344;28;20030;-67
2023/04/02 13:46:58;;;;;;;7.10;2.75;;;12.60;91.70;;;;;;4990132;28;20045;-66